Terminal Aerodrome Forecast
Issued by NWS Charleston, WV

Current Version | Previous Version | Graphics & Text | Print | Product List | Glossary On
Versions: 1 2 3 4 5 6 7 8 9 10 11 12 13 14 15 16 17 18 19 20 21 22 23 24 25
000
FTUS41 KRLX 242300
TAFBKW
TAF
KBKW 242334Z 2500/2524 20014G27KT P6SM SHRA VCTS OVC045CB
      TEMPO 2500/2501 26018G40KT 3SM TSRA
     FM250200 26015G30KT P6SM SHRA OVC040
     FM250400 27014G22KT P6SM OVC030
     FM250600 27012G21KT P6SM OVC010
     FM251400 28012G18KT P6SM OVC025
     FM251800 28012G22KT P6SM OVC035
     FM252300 28005KT P6SM SCT035=

USA.gov is the U.S. government's official web portal to all federal, state and local government web resources and services.